Main page
METAR-TAF:

METAR-TAF

Airports :

Nassau, The Bahamas

Lynden Pindling International Airport

latitude: 25-03N, longitude: 077-28W, elevation: 3 m

Current weather observation

The report was made 22 minutes ago, at 01:00 UTC
Wind 3 kt from the East
Temperature 24°C
Humidity 54%
Pressure 1017 hPa
Visibility 10 km or more
Few clouds at a height of 2000 ft

METAR: MYNN 290100Z 09003KT 9999 FEW020 24/14 A3004

Time: 21:22 (01:22 UTC)

Forecast

The report was made 3 hours and 52 minutes ago, at 21:30 UTC
Forecast valid from 29 at 00 UTC to 29 at 24 UTC
Wind 2 kt from variable directions
Visibility 10 km or more
Few clouds at a height of 2000 ft
Becoming
from 29 at 13 UTC to 29 at 15 UTC
Wind 5 kt from the East/Northeast
Scattered clouds at a height of 2500 ft

TAF: MYNN 282130Z 2900/2924 VRB02KT 9999 FEW020 BECMG 2913/2915 07005KT SCT025

Weather observations and forecasts of more than 4000 airports (METAR and TAF reports).

The available stations are represented by yellow and red dots on the map.

Hover mouse over dot to see the name of the station.

Then click to see weather observations and forecasts.

To change the map : click on the green buttons with a black cross to zoom in, on the green button with a dash to zoom out, or on the green arrows for adjacent maps.


METAR-TAF: